createdAt,value
2019-02-16T00:11:54.389Z,43.40
2019-02-16T00:51:58.051Z,43.50
2019-02-16T01:05:05.263Z,43.70
2019-02-16T01:31:17.375Z,43.50
2019-02-16T01:44:24.556Z,43.60
2019-02-16T01:57:31.738Z,43.60
2019-02-16T02:10:39.002Z,43.70
2019-02-16T02:36:49.544Z,43.70
2019-02-16T02:49:56.850Z,43.70
2019-02-16T03:03:04.043Z,43.80
2019-02-16T03:16:11.286Z,43.90
2019-02-16T03:29:18.481Z,43.90
2019-02-16T03:42:25.647Z,43.90
2019-02-16T03:55:49.248Z,44.00
2019-02-16T04:09:12.111Z,44.10
2019-02-16T04:22:34.910Z,44.10
2019-02-16T04:35:57.675Z,44.10
2019-02-16T04:49:20.482Z,44.20
2019-02-16T05:02:43.331Z,44.20
2019-02-16T05:16:06.133Z,44.30
2019-02-16T05:29:28.944Z,44.30
2019-02-16T05:42:51.764Z,44.30
2019-02-16T05:56:14.573Z,45.40
2019-02-16T06:09:37.400Z,45.80
2019-02-16T06:23:03.425Z,45.30
2019-02-16T06:36:23.026Z,44.90
2019-02-16T06:49:45.835Z,43.60
2019-02-16T07:03:08.640Z,41.80
2019-02-16T07:16:31.492Z,40.50
2019-02-16T07:29:54.319Z,39.50
2019-02-16T07:43:17.120Z,38.80
2019-02-16T07:56:39.954Z,38.10
2019-02-16T08:10:02.740Z,37.60
2019-02-16T08:23:25.607Z,37.30
2019-02-16T08:36:48.396Z,36.80
2019-02-16T08:50:11.286Z,35.50
2019-02-16T09:03:34.040Z,34.50
2019-02-16T09:16:56.851Z,36.10
2019-02-16T09:43:55.015Z,37.50
2019-02-16T09:57:02.156Z,37.90
2019-02-16T10:10:10.118Z,38.80
2019-02-16T10:23:17.308Z,38.80
2019-02-16T10:36:41.065Z,39.30
2019-02-16T11:17:05.880Z,40.20
2019-02-16T11:30:28.596Z,40.60
2019-02-16T11:43:51.397Z,40.30
2019-02-16T11:57:14.243Z,40.50
2019-02-16T12:10:37.122Z,41.20
2019-02-16T12:23:59.893Z,41.40
2019-02-16T12:37:22.687Z,41.50
2019-02-16T12:50:45.507Z,40.80
2019-02-16T13:04:08.352Z,41.10
2019-02-16T13:17:31.233Z,41.20
2019-02-16T13:30:53.964Z,41.80
2019-02-16T13:44:16.775Z,40.90
2019-02-16T13:57:39.665Z,41.00
2019-02-16T14:11:02.401Z,40.80
2019-02-16T14:50:33.356Z,45.70
2019-02-16T15:03:40.523Z,46.10
2019-02-16T15:16:47.701Z,47.20
2019-02-16T15:29:55.023Z,49.70
2019-02-16T15:43:02.166Z,51.20
2019-02-16T15:56:10.381Z,52.10
2019-02-16T16:09:34.426Z,52.60
2019-02-16T16:22:56.044Z,53.10
2019-02-16T16:36:18.698Z,53.10
2019-02-16T16:49:41.486Z,52.20
2019-02-16T17:03:04.353Z,52.30
2019-02-16T17:16:27.168Z,52.10
2019-02-16T17:29:49.941Z,50.90
2019-02-16T17:43:12.763Z,54.00
2019-02-16T18:09:37.280Z,55.60
2019-02-16T18:22:44.610Z,54.10
2019-02-16T18:35:51.871Z,52.50
2019-02-16T18:48:59.059Z,52.50
2019-02-16T19:02:06.280Z,51.60
2019-02-16T19:15:13.629Z,50.50
2019-02-16T19:28:37.016Z,49.40
2019-02-16T19:41:59.961Z,51.00
2019-02-16T19:55:22.628Z,50.10
2019-02-16T20:08:45.560Z,49.60
2019-02-16T20:22:08.240Z,49.80
2019-02-16T20:35:31.145Z,48.10
2019-02-16T20:48:53.891Z,48.30
2019-02-16T21:02:16.684Z,48.30
2019-02-16T21:15:39.494Z,48.90
2019-02-16T21:29:02.334Z,47.30
2019-02-16T21:42:25.156Z,46.30
2019-02-16T21:55:48.083Z,45.30
2019-02-16T22:09:10.795Z,44.50
2019-02-16T22:22:33.699Z,44.10
2019-02-16T22:35:56.453Z,42.90
2019-02-16T22:49:19.491Z,43.70
2019-02-16T23:02:42.025Z,43.90
2019-02-16T23:16:04.929Z,44.20
2019-02-16T23:29:27.763Z,44.30
2019-02-16T23:42:50.515Z,44.50
2019-02-16T23:56:13.335Z,44.60
